sensor_id;sensor_type;location;lat;lon;timestamp;P1;durP1;ratioP1;P2;durP2;ratioP2
43529;SDS011;55654;50.966;6.878;2022-12-20T00:01:57;3.67;;;1.10;;
43529;SDS011;55654;50.966;6.878;2022-12-20T00:04:23;4.33;;;1.50;;
43529;SDS011;55654;50.966;6.878;2022-12-20T00:06:49;5.63;;;1.67;;
43529;SDS011;55654;50.966;6.878;2022-12-20T00:09:15;6.50;;;2.00;;
43529;SDS011;55654;50.966;6.878;2022-12-20T00:11:44;4.37;;;1.57;;
43529;SDS011;55654;50.966;6.878;2022-12-20T00:14:10;2.23;;;1.53;;
43529;SDS011;55654;50.966;6.878;2022-12-20T00:16:36;3.03;;;1.50;;
43529;SDS011;55654;50.966;6.878;2022-12-20T00:19:05;3.83;;;1.83;;
43529;SDS011;55654;50.966;6.878;2022-12-20T00:21:32;3.63;;;1.87;;
43529;SDS011;55654;50.966;6.878;2022-12-20T00:24:01;3.37;;;1.87;;
43529;SDS011;55654;50.966;6.878;2022-12-20T00:26:29;3.43;;;1.80;;
43529;SDS011;55654;50.966;6.878;2022-12-20T00:28:55;6.10;;;2.37;;
43529;SDS011;55654;50.966;6.878;2022-12-20T00:31:21;3.27;;;1.53;;
43529;SDS011;55654;50.966;6.878;2022-12-20T00:33:48;2.70;;;1.60;;
43529;SDS011;55654;50.966;6.878;2022-12-20T00:36:16;3.53;;;1.83;;
43529;SDS011;55654;50.966;6.878;2022-12-20T00:38:45;3.83;;;2.40;;
43529;SDS011;55654;50.966;6.878;2022-12-20T00:41:11;4.87;;;1.50;;
43529;SDS011;55654;50.966;6.878;2022-12-20T00:43:38;3.83;;;1.93;;
43529;SDS011;55654;50.966;6.878;2022-12-20T00:46:05;2.80;;;2.00;;
43529;SDS011;55654;50.966;6.878;2022-12-20T00:48:32;2.23;;;1.53;;
43529;SDS011;55654;50.966;6.878;2022-12-20T00:50:59;7.10;;;2.37;;
43529;SDS011;55654;50.966;6.878;2022-12-20T00:53:26;4.70;;;1.80;;
43529;SDS011;55654;50.966;6.878;2022-12-20T00:55:52;4.17;;;1.77;;
43529;SDS011;55654;50.966;6.878;2022-12-20T00:58:18;6.03;;;2.03;;
43529;SDS011;55654;50.966;6.878;2022-12-20T01:00:44;5.20;;;1.87;;
43529;SDS011;55654;50.966;6.878;2022-12-20T01:03:11;2.77;;;1.70;;
43529;SDS011;55654;50.966;6.878;2022-12-20T01:05:39;2.90;;;2.07;;
43529;SDS011;55654;50.966;6.878;2022-12-20T01:08:05;4.20;;;2.33;;
43529;SDS011;55654;50.966;6.878;2022-12-20T01:10:32;3.30;;;2.10;;
43529;SDS011;55654;50.966;6.878;2022-12-20T01:12:58;5.77;;;2.30;;
43529;SDS011;55654;50.966;6.878;2022-12-20T01:15:24;3.10;;;1.87;;
43529;SDS011;55654;50.966;6.878;2022-12-20T01:17:50;4.07;;;2.20;;
43529;SDS011;55654;50.966;6.878;2022-12-20T01:20:16;4.73;;;2.20;;
43529;SDS011;55654;50.966;6.878;2022-12-20T01:22:42;3.70;;;1.93;;
43529;SDS011;55654;50.966;6.878;2022-12-20T01:25:08;7.03;;;2.40;;
43529;SDS011;55654;50.966;6.878;2022-12-20T01:27:34;4.90;;;2.37;;
43529;SDS011;55654;50.966;6.878;2022-12-20T01:30:00;4.80;;;2.17;;
43529;SDS011;55654;50.966;6.878;2022-12-20T01:32:28;4.37;;;2.90;;
43529;SDS011;55654;50.966;6.878;2022-12-20T01:34:54;8.30;;;2.90;;
43529;SDS011;55654;50.966;6.878;2022-12-20T01:37:20;5.73;;;1.93;;
43529;SDS011;55654;50.966;6.878;2022-12-20T01:39:46;3.80;;;2.23;;
43529;SDS011;55654;50.966;6.878;2022-12-20T01:42:13;3.90;;;2.60;;
43529;SDS011;55654;50.966;6.878;2022-12-20T01:47:08;3.77;;;2.17;;
43529;SDS011;55654;50.966;6.878;2022-12-20T01:49:45;3.67;;;2.33;;
43529;SDS011;55654;50.966;6.878;2022-12-20T01:54:52;4.25;;;2.13;;
43529;SDS011;55654;50.966;6.878;2022-12-20T01:57:20;5.17;;;2.50;;
43529;SDS011;55654;50.966;6.878;2022-12-20T01:59:47;4.73;;;2.50;;
43529;SDS011;55654;50.966;6.878;2022-12-20T02:02:15;6.73;;;2.23;;
43529;SDS011;55654;50.966;6.878;2022-12-20T02:04:41;5.27;;;2.40;;
43529;SDS011;55654;50.966;6.878;2022-12-20T02:07:07;4.53;;;2.17;;
43529;SDS011;55654;50.966;6.878;2022-12-20T02:09:33;3.43;;;2.60;;
43529;SDS011;55654;50.966;6.878;2022-12-20T02:22:15;7.33;;;2.90;;
43529;SDS011;55654;50.966;6.878;2022-12-20T02:24:46;5.93;;;2.97;;
43529;SDS011;55654;50.966;6.878;2022-12-20T02:32:21;6.90;;;3.55;;
43529;SDS011;55654;50.966;6.878;2022-12-20T02:34:49;5.17;;;3.33;;
43529;SDS011;55654;50.966;6.878;2022-12-20T02:37:15;4.27;;;2.80;;
43529;SDS011;55654;50.966;6.878;2022-12-20T02:39:41;3.10;;;2.43;;
43529;SDS011;55654;50.966;6.878;2022-12-20T02:42:10;5.27;;;3.07;;
43529;SDS011;55654;50.966;6.878;2022-12-20T02:44:40;5.07;;;2.90;;
43529;SDS011;55654;50.966;6.878;2022-12-20T02:47:27;6.43;;;3.20;;
43529;SDS011;55654;50.966;6.878;2022-12-20T02:49:57;4.53;;;2.65;;
43529;SDS011;55654;50.966;6.878;2022-12-20T02:52:26;5.40;;;3.10;;
43529;SDS011;55654;50.966;6.878;2022-12-20T02:54:55;5.73;;;3.23;;
43529;SDS011;55654;50.966;6.878;2022-12-20T03:00:07;5.90;;;2.80;;
43529;SDS011;55654;50.966;6.878;2022-12-20T03:02:36;4.77;;;2.60;;
43529;SDS011;55654;50.966;6.878;2022-12-20T03:05:22;3.80;;;2.37;;
43529;SDS011;55654;50.966;6.878;2022-12-20T03:07:49;3.97;;;2.40;;
43529;SDS011;55654;50.966;6.878;2022-12-20T03:10:16;5.50;;;2.77;;
43529;SDS011;55654;50.966;6.878;2022-12-20T03:12:42;6.70;;;2.23;;
43529;SDS011;55654;50.966;6.878;2022-12-20T03:15:08;4.97;;;2.43;;
43529;SDS011;55654;50.966;6.878;2022-12-20T03:17:34;6.63;;;2.47;;
43529;SDS011;55654;50.966;6.878;2022-12-20T03:20:00;11.07;;;4.23;;
43529;SDS011;55654;50.966;6.878;2022-12-20T03:22:27;7.90;;;2.70;;
43529;SDS011;55654;50.966;6.878;2022-12-20T03:24:55;6.50;;;2.80;;
43529;SDS011;55654;50.966;6.878;2022-12-20T03:27:21;4.63;;;2.80;;
43529;SDS011;55654;50.966;6.878;2022-12-20T03:29:47;5.10;;;3.00;;
43529;SDS011;55654;50.966;6.878;2022-12-20T03:32:15;6.47;;;2.83;;
43529;SDS011;55654;50.966;6.878;2022-12-20T03:34:41;4.03;;;2.37;;
43529;SDS011;55654;50.966;6.878;2022-12-20T03:37:08;4.63;;;2.50;;
43529;SDS011;55654;50.966;6.878;2022-12-20T03:39:34;4.93;;;2.60;;
43529;SDS011;55654;50.966;6.878;2022-12-20T03:42:00;7.07;;;2.77;;
43529;SDS011;55654;50.966;6.878;2022-12-20T03:44:26;5.83;;;3.47;;
43529;SDS011;55654;50.966;6.878;2022-12-20T03:46:54;4.97;;;2.60;;
43529;SDS011;55654;50.966;6.878;2022-12-20T03:49:23;6.47;;;3.57;;
43529;SDS011;55654;50.966;6.878;2022-12-20T03:51:49;3.73;;;2.40;;
43529;SDS011;55654;50.966;6.878;2022-12-20T03:54:15;6.90;;;2.70;;
43529;SDS011;55654;50.966;6.878;2022-12-20T03:56:41;4.07;;;2.17;;
43529;SDS011;55654;50.966;6.878;2022-12-20T03:59:07;4.77;;;3.00;;
43529;SDS011;55654;50.966;6.878;2022-12-20T04:01:33;6.07;;;2.93;;
43529;SDS011;55654;50.966;6.878;2022-12-20T04:04:01;5.07;;;2.57;;
43529;SDS011;55654;50.966;6.878;2022-12-20T04:06:27;8.53;;;3.33;;
43529;SDS011;55654;50.966;6.878;2022-12-20T04:08:53;8.87;;;3.20;;
43529;SDS011;55654;50.966;6.878;2022-12-20T04:11:19;6.00;;;3.10;;
43529;SDS011;55654;50.966;6.878;2022-12-20T04:13:49;11.80;;;3.63;;
43529;SDS011;55654;50.966;6.878;2022-12-20T04:16:16;6.73;;;3.00;;
43529;SDS011;55654;50.966;6.878;2022-12-20T04:18:43;8.00;;;3.30;;
43529;SDS011;55654;50.966;6.878;2022-12-20T04:21:11;5.23;;;3.10;;
43529;SDS011;55654;50.966;6.878;2022-12-20T04:23:38;4.27;;;3.43;;
43529;SDS011;55654;50.966;6.878;2022-12-20T04:26:05;5.23;;;3.67;;
43529;SDS011;55654;50.966;6.878;2022-12-20T04:28:32;6.87;;;3.63;;
43529;SDS011;55654;50.966;6.878;2022-12-20T04:30:58;9.83;;;4.77;;
43529;SDS011;55654;50.966;6.878;2022-12-20T04:33:27;8.27;;;4.50;;
43529;SDS011;55654;50.966;6.878;2022-12-20T04:35:53;9.13;;;4.77;;
43529;SDS011;55654;50.966;6.878;2022-12-20T04:38:20;9.93;;;4.40;;
43529;SDS011;55654;50.966;6.878;2022-12-20T04:40:50;6.97;;;4.37;;
43529;SDS011;55654;50.966;6.878;2022-12-20T04:43:16;8.37;;;4.60;;
43529;SDS011;55654;50.966;6.878;2022-12-20T04:45:43;11.70;;;4.30;;
43529;SDS011;55654;50.966;6.878;2022-12-20T04:48:10;9.23;;;5.00;;
43529;SDS011;55654;50.966;6.878;2022-12-20T04:50:36;6.00;;;4.70;;
43529;SDS011;55654;50.966;6.878;2022-12-20T04:53:02;8.07;;;4.17;;
43529;SDS011;55654;50.966;6.878;2022-12-20T04:55:47;9.57;;;5.30;;
43529;SDS011;55654;50.966;6.878;2022-12-20T04:58:13;9.27;;;4.93;;
43529;SDS011;55654;50.966;6.878;2022-12-20T05:00:39;5.87;;;4.00;;
43529;SDS011;55654;50.966;6.878;2022-12-20T05:03:05;11.83;;;5.07;;
43529;SDS011;55654;50.966;6.878;2022-12-20T05:05:31;8.77;;;3.50;;
43529;SDS011;55654;50.966;6.878;2022-12-20T05:07:57;10.50;;;4.40;;
43529;SDS011;55654;50.966;6.878;2022-12-20T05:10:23;12.30;;;4.53;;
43529;SDS011;55654;50.966;6.878;2022-12-20T05:12:49;7.73;;;4.67;;
43529;SDS011;55654;50.966;6.878;2022-12-20T05:15:16;8.47;;;4.10;;
43529;SDS011;55654;50.966;6.878;2022-12-20T05:17:42;6.47;;;4.03;;
43529;SDS011;55654;50.966;6.878;2022-12-20T05:20:08;7.83;;;4.10;;
43529;SDS011;55654;50.966;6.878;2022-12-20T05:22:34;6.80;;;3.70;;
43529;SDS011;55654;50.966;6.878;2022-12-20T05:25:21;6.07;;;3.77;;
43529;SDS011;55654;50.966;6.878;2022-12-20T05:28:06;9.10;;;3.70;;
43529;SDS011;55654;50.966;6.878;2022-12-20T05:30:32;4.03;;;3.10;;
43529;SDS011;55654;50.966;6.878;2022-12-20T05:32:58;6.67;;;3.70;;
43529;SDS011;55654;50.966;6.878;2022-12-20T05:35:24;9.50;;;3.90;;
43529;SDS011;55654;50.966;6.878;2022-12-20T05:37:50;4.20;;;3.20;;
43529;SDS011;55654;50.966;6.878;2022-12-20T05:40:16;4.10;;;2.87;;
43529;SDS011;55654;50.966;6.878;2022-12-20T05:42:42;7.63;;;2.90;;
43529;SDS011;55654;50.966;6.878;2022-12-20T05:45:08;6.13;;;3.10;;
43529;SDS011;55654;50.966;6.878;2022-12-20T05:47:40;4.73;;;2.93;;
43529;SDS011;55654;50.966;6.878;2022-12-20T05:50:06;6.37;;;3.00;;
43529;SDS011;55654;50.966;6.878;2022-12-20T05:52:32;7.20;;;3.20;;
43529;SDS011;55654;50.966;6.878;2022-12-20T05:54:58;6.20;;;3.20;;
43529;SDS011;55654;50.966;6.878;2022-12-20T05:57:27;9.67;;;3.57;;
43529;SDS011;55654;50.966;6.878;2022-12-20T05:59:55;6.63;;;3.47;;
43529;SDS011;55654;50.966;6.878;2022-12-20T06:02:21;8.43;;;3.00;;
43529;SDS011;55654;50.966;6.878;2022-12-20T06:04:47;9.47;;;3.33;;
43529;SDS011;55654;50.966;6.878;2022-12-20T06:07:13;9.27;;;4.37;;
43529;SDS011;55654;50.966;6.878;2022-12-20T06:09:39;6.53;;;3.70;;
43529;SDS011;55654;50.966;6.878;2022-12-20T06:12:05;9.23;;;3.43;;
43529;SDS011;55654;50.966;6.878;2022-12-20T06:14:31;6.20;;;2.43;;
43529;SDS011;55654;50.966;6.878;2022-12-20T06:16:57;6.53;;;3.17;;
43529;SDS011;55654;50.966;6.878;2022-12-20T06:19:26;8.80;;;3.90;;
43529;SDS011;55654;50.966;6.878;2022-12-20T06:21:52;7.30;;;3.33;;
43529;SDS011;55654;50.966;6.878;2022-12-20T06:24:18;10.43;;;4.13;;
43529;SDS011;55654;50.966;6.878;2022-12-20T06:26:45;7.27;;;3.30;;
43529;SDS011;55654;50.966;6.878;2022-12-20T06:29:11;8.33;;;3.73;;
43529;SDS011;55654;50.966;6.878;2022-12-20T06:31:41;4.60;;;2.90;;
43529;SDS011;55654;50.966;6.878;2022-12-20T06:34:07;5.77;;;3.50;;
43529;SDS011;55654;50.966;6.878;2022-12-20T06:36:33;7.43;;;3.37;;
43529;SDS011;55654;50.966;6.878;2022-12-20T06:38:59;7.80;;;3.73;;
43529;SDS011;55654;50.966;6.878;2022-12-20T06:41:25;7.60;;;3.40;;
43529;SDS011;55654;50.966;6.878;2022-12-20T06:43:51;6.93;;;3.90;;
43529;SDS011;55654;50.966;6.878;2022-12-20T06:46:17;6.67;;;3.53;;
43529;SDS011;55654;50.966;6.878;2022-12-20T06:48:43;6.47;;;3.80;;
43529;SDS011;55654;50.966;6.878;2022-12-20T06:51:09;10.90;;;3.93;;
43529;SDS011;55654;50.966;6.878;2022-12-20T06:53:35;12.80;;;4.77;;
43529;SDS011;55654;50.966;6.878;2022-12-20T06:56:04;7.67;;;3.23;;
43529;SDS011;55654;50.966;6.878;2022-12-20T06:58:30;9.73;;;3.90;;
43529;SDS011;55654;50.966;6.878;2022-12-20T07:00:56;11.40;;;3.90;;
43529;SDS011;55654;50.966;6.878;2022-12-20T07:03:22;7.23;;;3.57;;
43529;SDS011;55654;50.966;6.878;2022-12-20T07:05:51;8.63;;;4.00;;
43529;SDS011;55654;50.966;6.878;2022-12-20T07:08:18;9.70;;;3.70;;
43529;SDS011;55654;50.966;6.878;2022-12-20T07:10:44;9.10;;;3.80;;
43529;SDS011;55654;50.966;6.878;2022-12-20T07:13:13;6.27;;;4.03;;
43529;SDS011;55654;50.966;6.878;2022-12-20T07:15:39;8.43;;;4.30;;
43529;SDS011;55654;50.966;6.878;2022-12-20T07:18:05;10.47;;;4.67;;
43529;SDS011;55654;50.966;6.878;2022-12-20T07:20:31;10.40;;;4.53;;
43529;SDS011;55654;50.966;6.878;2022-12-20T07:22:57;12.20;;;4.27;;
43529;SDS011;55654;50.966;6.878;2022-12-20T07:25:24;9.13;;;3.90;;
43529;SDS011;55654;50.966;6.878;2022-12-20T07:27:50;7.63;;;3.33;;
43529;SDS011;55654;50.966;6.878;2022-12-20T07:30:17;8.43;;;3.80;;
43529;SDS011;55654;50.966;6.878;2022-12-20T07:32:43;9.33;;;4.23;;
43529;SDS011;55654;50.966;6.878;2022-12-20T07:35:10;8.47;;;3.60;;
43529;SDS011;55654;50.966;6.878;2022-12-20T07:37:36;9.27;;;5.23;;
43529;SDS011;55654;50.966;6.878;2022-12-20T07:40:02;8.30;;;4.70;;
43529;SDS011;55654;50.966;6.878;2022-12-20T07:42:29;10.30;;;4.27;;
43529;SDS011;55654;50.966;6.878;2022-12-20T07:44:55;8.97;;;4.73;;
43529;SDS011;55654;50.966;6.878;2022-12-20T07:47:21;11.90;;;4.70;;
43529;SDS011;55654;50.966;6.878;2022-12-20T07:49:47;11.97;;;4.33;;
43529;SDS011;55654;50.966;6.878;2022-12-20T07:52:13;11.50;;;4.67;;
43529;SDS011;55654;50.966;6.878;2022-12-20T07:54:41;9.80;;;5.33;;
43529;SDS011;55654;50.966;6.878;2022-12-20T07:57:11;12.87;;;5.27;;
43529;SDS011;55654;50.966;6.878;2022-12-20T07:59:39;8.83;;;4.40;;
43529;SDS011;55654;50.966;6.878;2022-12-20T08:02:06;8.10;;;4.87;;
43529;SDS011;55654;50.966;6.878;2022-12-20T08:04:33;9.73;;;5.17;;
43529;SDS011;55654;50.966;6.878;2022-12-20T08:06:59;9.90;;;4.93;;
43529;SDS011;55654;50.966;6.878;2022-12-20T08:09:27;19.80;;;9.30;;
43529;SDS011;55654;50.966;6.878;2022-12-20T08:11:55;44.50;;;21.07;;
43529;SDS011;55654;50.966;6.878;2022-12-20T08:14:22;25.87;;;10.53;;
43529;SDS011;55654;50.966;6.878;2022-12-20T08:16:48;24.87;;;10.50;;
43529;SDS011;55654;50.966;6.878;2022-12-20T08:19:15;18.87;;;8.60;;
43529;SDS011;55654;50.966;6.878;2022-12-20T08:21:41;15.73;;;8.70;;
43529;SDS011;55654;50.966;6.878;2022-12-20T08:24:07;33.73;;;29.97;;
43529;SDS011;55654;50.966;6.878;2022-12-20T08:26:39;20.53;;;16.17;;
43529;SDS011;55654;50.966;6.878;2022-12-20T08:29:06;14.10;;;9.87;;
43529;SDS011;55654;50.966;6.878;2022-12-20T08:31:35;9.27;;;6.17;;
43529;SDS011;55654;50.966;6.878;2022-12-20T08:34:01;11.50;;;5.47;;
43529;SDS011;55654;50.966;6.878;2022-12-20T08:36:27;10.57;;;5.50;;
43529;SDS011;55654;50.966;6.878;2022-12-20T08:38:53;9.20;;;6.03;;
43529;SDS011;55654;50.966;6.878;2022-12-20T08:41:19;11.10;;;5.97;;
43529;SDS011;55654;50.966;6.878;2022-12-20T08:43:48;9.97;;;4.87;;
43529;SDS011;55654;50.966;6.878;2022-12-20T08:46:14;8.43;;;4.40;;
43529;SDS011;55654;50.966;6.878;2022-12-20T08:48:40;12.30;;;5.40;;
43529;SDS011;55654;50.966;6.878;2022-12-20T08:51:08;9.27;;;4.90;;
43529;SDS011;55654;50.966;6.878;2022-12-20T08:53:36;10.03;;;4.87;;
43529;SDS011;55654;50.966;6.878;2022-12-20T08:56:06;12.63;;;5.30;;
43529;SDS011;55654;50.966;6.878;2022-12-20T08:58:33;10.77;;;4.90;;
43529;SDS011;55654;50.966;6.878;2022-12-20T09:01:02;10.93;;;4.83;;
43529;SDS011;55654;50.966;6.878;2022-12-20T09:03:29;11.93;;;5.10;;
43529;SDS011;55654;50.966;6.878;2022-12-20T09:05:55;9.60;;;5.07;;
43529;SDS011;55654;50.966;6.878;2022-12-20T09:08:22;10.50;;;4.30;;
43529;SDS011;55654;50.966;6.878;2022-12-20T09:10:48;10.50;;;4.77;;
43529;SDS011;55654;50.966;6.878;2022-12-20T09:13:14;10.77;;;5.10;;
43529;SDS011;55654;50.966;6.878;2022-12-20T09:15:40;9.43;;;4.70;;
43529;SDS011;55654;50.966;6.878;2022-12-20T09:18:06;14.30;;;5.83;;
43529;SDS011;55654;50.966;6.878;2022-12-20T09:20:33;11.67;;;4.20;;
43529;SDS011;55654;50.966;6.878;2022-12-20T09:23:01;10.80;;;4.90;;
43529;SDS011;55654;50.966;6.878;2022-12-20T09:25:27;15.33;;;5.00;;
43529;SDS011;55654;50.966;6.878;2022-12-20T09:27:53;11.77;;;5.30;;
43529;SDS011;55654;50.966;6.878;2022-12-20T09:30:22;11.03;;;5.03;;
43529;SDS011;55654;50.966;6.878;2022-12-20T09:32:50;6.90;;;3.90;;
43529;SDS011;55654;50.966;6.878;2022-12-20T09:35:16;9.83;;;5.73;;
43529;SDS011;55654;50.966;6.878;2022-12-20T09:37:43;6.97;;;4.00;;
43529;SDS011;55654;50.966;6.878;2022-12-20T09:40:13;10.00;;;3.50;;
43529;SDS011;55654;50.966;6.878;2022-12-20T09:42:41;13.30;;;6.38;;
43529;SDS011;55654;50.966;6.878;2022-12-20T09:45:07;13.03;;;5.40;;
43529;SDS011;55654;50.966;6.878;2022-12-20T09:47:34;12.40;;;4.40;;
43529;SDS011;55654;50.966;6.878;2022-12-20T09:50:01;10.27;;;4.93;;
43529;SDS011;55654;50.966;6.878;2022-12-20T09:52:50;11.50;;;5.53;;
43529;SDS011;55654;50.966;6.878;2022-12-20T09:55:30;6.93;;;4.63;;
43529;SDS011;55654;50.966;6.878;2022-12-20T09:58:19;14.57;;;5.27;;
43529;SDS011;55654;50.966;6.878;2022-12-20T10:00:48;9.83;;;5.20;;
43529;SDS011;55654;50.966;6.878;2022-12-20T10:03:30;9.40;;;5.13;;
43529;SDS011;55654;50.966;6.878;2022-12-20T10:05:57;19.20;;;10.30;;
43529;SDS011;55654;50.966;6.878;2022-12-20T10:14:01;10.50;;;4.70;;
43529;SDS011;55654;50.966;6.878;2022-12-20T10:16:38;7.90;;;3.93;;
43529;SDS011;55654;50.966;6.878;2022-12-20T10:24:10;7.90;;;4.23;;
43529;SDS011;55654;50.966;6.878;2022-12-20T10:26:37;9.80;;;3.85;;
43529;SDS011;55654;50.966;6.878;2022-12-20T10:29:03;8.47;;;3.23;;
43529;SDS011;55654;50.966;6.878;2022-12-20T10:31:33;8.63;;;2.97;;
43529;SDS011;55654;50.966;6.878;2022-12-20T10:33:59;6.00;;;2.83;;
43529;SDS011;55654;50.966;6.878;2022-12-20T10:36:30;4.43;;;2.50;;
43529;SDS011;55654;50.966;6.878;2022-12-20T10:38:57;6.17;;;2.30;;
43529;SDS011;55654;50.966;6.878;2022-12-20T10:41:25;7.73;;;3.20;;
43529;SDS011;55654;50.966;6.878;2022-12-20T10:44:04;5.60;;;2.20;;
43529;SDS011;55654;50.966;6.878;2022-12-20T10:46:58;3.50;;;1.73;;
43529;SDS011;55654;50.966;6.878;2022-12-20T10:49:29;4.00;;;2.00;;
43529;SDS011;55654;50.966;6.878;2022-12-20T10:51:57;7.67;;;2.73;;
43529;SDS011;55654;50.966;6.878;2022-12-20T10:54:27;5.50;;;2.83;;
43529;SDS011;55654;50.966;6.878;2022-12-20T10:56:55;7.97;;;4.27;;
43529;SDS011;55654;50.966;6.878;2022-12-20T10:59:32;9.33;;;3.43;;
43529;SDS011;55654;50.966;6.878;2022-12-20T11:01:59;9.37;;;3.53;;
43529;SDS011;55654;50.966;6.878;2022-12-20T11:06:57;12.87;;;3.77;;
43529;SDS011;55654;50.966;6.878;2022-12-20T11:09:30;9.93;;;3.33;;
43529;SDS011;55654;50.966;6.878;2022-12-20T11:12:11;6.70;;;2.73;;
43529;SDS011;55654;50.966;6.878;2022-12-20T11:14:37;8.13;;;3.37;;
43529;SDS011;55654;50.966;6.878;2022-12-20T11:19:43;6.10;;;3.53;;
43529;SDS011;55654;50.966;6.878;2022-12-20T11:24:48;5.83;;;2.37;;
43529;SDS011;55654;50.966;6.878;2022-12-20T11:30:12;4.10;;;2.60;;
43529;SDS011;55654;50.966;6.878;2022-12-20T11:38:16;4.57;;;2.50;;
43529;SDS011;55654;50.966;6.878;2022-12-20T11:40:33;12.50;;;4.10;;
43529;SDS011;55654;50.966;6.878;2022-12-20T11:43:11;12.67;;;5.70;;
43529;SDS011;55654;50.966;6.878;2022-12-20T11:50:48;9.57;;;4.60;;
43529;SDS011;55654;50.966;6.878;2022-12-20T11:55:48;6.00;;;2.90;;
43529;SDS011;55654;50.966;6.878;2022-12-20T11:58:28;5.73;;;3.10;;
43529;SDS011;55654;50.966;6.878;2022-12-20T12:03:26;13.67;;;3.33;;
43529;SDS011;55654;50.966;6.878;2022-12-20T12:05:56;9.40;;;3.83;;
43529;SDS011;55654;50.966;6.878;2022-12-20T12:08:37;10.23;;;3.03;;
43529;SDS011;55654;50.966;6.878;2022-12-20T12:11:08;7.10;;;2.53;;
43529;SDS011;55654;50.966;6.878;2022-12-20T12:13:36;8.53;;;3.00;;
43529;SDS011;55654;50.966;6.878;2022-12-20T12:18:43;6.77;;;2.37;;
43529;SDS011;55654;50.966;6.878;2022-12-20T12:21:21;4.33;;;2.70;;
43529;SDS011;55654;50.966;6.878;2022-12-20T12:26:36;4.90;;;2.53;;
43529;SDS011;55654;50.966;6.878;2022-12-20T12:29:09;11.37;;;3.60;;
43529;SDS011;55654;50.966;6.878;2022-12-20T12:34:24;8.33;;;4.23;;
43529;SDS011;55654;50.966;6.878;2022-12-20T12:39:29;6.25;;;2.35;;
43529;SDS011;55654;50.966;6.878;2022-12-20T12:47:11;7.93;;;2.43;;
43529;SDS011;55654;50.966;6.878;2022-12-20T12:49:39;7.03;;;3.77;;
43529;SDS011;55654;50.966;6.878;2022-12-20T12:52:06;7.20;;;3.60;;
43529;SDS011;55654;50.966;6.878;2022-12-20T12:54:36;6.23;;;2.90;;
43529;SDS011;55654;50.966;6.878;2022-12-20T12:57:21;3.83;;;2.07;;
43529;SDS011;55654;50.966;6.878;2022-12-20T12:59:47;6.00;;;3.17;;
43529;SDS011;55654;50.966;6.878;2022-12-20T13:09:57;6.93;;;3.90;;
43529;SDS011;55654;50.966;6.878;2022-12-20T13:17:57;9.70;;;4.47;;
43529;SDS011;55654;50.966;6.878;2022-12-20T13:20:33;14.07;;;4.63;;
43529;SDS011;55654;50.966;6.878;2022-12-20T13:25:39;16.00;;;6.43;;
43529;SDS011;55654;50.966;6.878;2022-12-20T13:30:41;19.13;;;9.73;;
43529;SDS011;55654;50.966;6.878;2022-12-20T13:35:59;10.67;;;6.27;;
43529;SDS011;55654;50.966;6.878;2022-12-20T13:40:56;14.60;;;5.77;;
43529;SDS011;55654;50.966;6.878;2022-12-20T13:43:24;15.40;;;5.87;;
43529;SDS011;55654;50.966;6.878;2022-12-20T13:45:53;13.47;;;6.50;;
43529;SDS011;55654;50.966;6.878;2022-12-20T13:51:26;13.13;;;6.87;;
43529;SDS011;55654;50.966;6.878;2022-12-20T13:59:23;12.17;;;6.10;;
43529;SDS011;55654;50.966;6.878;2022-12-20T14:01:54;18.40;;;9.47;;
43529;SDS011;55654;50.966;6.878;2022-12-20T14:04:21;14.27;;;7.63;;
43529;SDS011;55654;50.966;6.878;2022-12-20T14:07:07;14.63;;;6.80;;
43529;SDS011;55654;50.966;6.878;2022-12-20T14:09:35;14.30;;;5.60;;
43529;SDS011;55654;50.966;6.878;2022-12-20T14:12:05;12.90;;;6.13;;
43529;SDS011;55654;50.966;6.878;2022-12-20T14:14:36;10.20;;;5.93;;
43529;SDS011;55654;50.966;6.878;2022-12-20T14:17:18;13.07;;;6.35;;
43529;SDS011;55654;50.966;6.878;2022-12-20T14:19:47;21.05;;;10.02;;
43529;SDS011;55654;50.966;6.878;2022-12-20T14:22:16;16.87;;;9.10;;
43529;SDS011;55654;50.966;6.878;2022-12-20T14:24:42;16.80;;;7.47;;
43529;SDS011;55654;50.966;6.878;2022-12-20T14:27:10;16.77;;;6.73;;
43529;SDS011;55654;50.966;6.878;2022-12-20T14:29:37;18.30;;;9.17;;
43529;SDS011;55654;50.966;6.878;2022-12-20T14:32:04;17.20;;;8.23;;
43529;SDS011;55654;50.966;6.878;2022-12-20T14:34:33;17.77;;;9.60;;
43529;SDS011;55654;50.966;6.878;2022-12-20T14:39:59;14.27;;;7.53;;
43529;SDS011;55654;50.966;6.878;2022-12-20T14:42:28;12.82;;;6.57;;
43529;SDS011;55654;50.966;6.878;2022-12-20T14:45:01;13.47;;;7.20;;
43529;SDS011;55654;50.966;6.878;2022-12-20T14:47:27;21.87;;;13.73;;
43529;SDS011;55654;50.966;6.878;2022-12-20T14:49:54;22.87;;;13.60;;
43529;SDS011;55654;50.966;6.878;2022-12-20T14:55:07;16.88;;;8.60;;
43529;SDS011;55654;50.966;6.878;2022-12-20T15:08:08;11.27;;;6.83;;
43529;SDS011;55654;50.966;6.878;2022-12-20T15:10:34;13.57;;;6.27;;
43529;SDS011;55654;50.966;6.878;2022-12-20T15:13:00;12.40;;;5.60;;
43529;SDS011;55654;50.966;6.878;2022-12-20T15:15:26;15.40;;;6.03;;
43529;SDS011;55654;50.966;6.878;2022-12-20T15:17:52;10.70;;;6.00;;
43529;SDS011;55654;50.966;6.878;2022-12-20T15:20:18;23.33;;;9.73;;
43529;SDS011;55654;50.966;6.878;2022-12-20T15:22:47;16.67;;;7.63;;
43529;SDS011;55654;50.966;6.878;2022-12-20T15:25:16;12.90;;;6.63;;
43529;SDS011;55654;50.966;6.878;2022-12-20T15:27:42;12.30;;;5.63;;
43529;SDS011;55654;50.966;6.878;2022-12-20T15:30:13;11.80;;;6.03;;
43529;SDS011;55654;50.966;6.878;2022-12-20T15:32:40;13.60;;;6.37;;
43529;SDS011;55654;50.966;6.878;2022-12-20T15:35:13;10.60;;;6.13;;
43529;SDS011;55654;50.966;6.878;2022-12-20T15:40:12;10.10;;;4.60;;
43529;SDS011;55654;50.966;6.878;2022-12-20T15:42:39;11.57;;;4.90;;
43529;SDS011;55654;50.966;6.878;2022-12-20T15:45:10;8.40;;;4.50;;
43529;SDS011;55654;50.966;6.878;2022-12-20T15:47:36;10.27;;;5.00;;
43529;SDS011;55654;50.966;6.878;2022-12-20T15:50:03;9.30;;;5.80;;
43529;SDS011;55654;50.966;6.878;2022-12-20T15:52:29;11.43;;;4.70;;
43529;SDS011;55654;50.966;6.878;2022-12-20T15:54:55;12.67;;;5.13;;
43529;SDS011;55654;50.966;6.878;2022-12-20T15:57:21;6.77;;;4.80;;
43529;SDS011;55654;50.966;6.878;2022-12-20T15:59:47;12.23;;;6.70;;
43529;SDS011;55654;50.966;6.878;2022-12-20T16:04:41;8.87;;;4.07;;
43529;SDS011;55654;50.966;6.878;2022-12-20T16:07:12;8.73;;;4.67;;
43529;SDS011;55654;50.966;6.878;2022-12-20T16:09:38;9.63;;;4.77;;
43529;SDS011;55654;50.966;6.878;2022-12-20T16:12:09;10.47;;;4.27;;
43529;SDS011;55654;50.966;6.878;2022-12-20T16:14:37;7.20;;;4.17;;
43529;SDS011;55654;50.966;6.878;2022-12-20T16:17:03;8.63;;;4.73;;
43529;SDS011;55654;50.966;6.878;2022-12-20T16:19:29;9.17;;;5.33;;
43529;SDS011;55654;50.966;6.878;2022-12-20T16:21:55;12.17;;;4.70;;
43529;SDS011;55654;50.966;6.878;2022-12-20T16:24:21;7.60;;;4.27;;
43529;SDS011;55654;50.966;6.878;2022-12-20T16:26:48;8.47;;;3.43;;
43529;SDS011;55654;50.966;6.878;2022-12-20T16:29:14;6.33;;;4.20;;
43529;SDS011;55654;50.966;6.878;2022-12-20T16:31:40;9.00;;;4.30;;
43529;SDS011;55654;50.966;6.878;2022-12-20T16:34:13;13.07;;;4.50;;
43529;SDS011;55654;50.966;6.878;2022-12-20T16:36:39;9.80;;;4.33;;
43529;SDS011;55654;50.966;6.878;2022-12-20T16:39:05;10.57;;;4.43;;
43529;SDS011;55654;50.966;6.878;2022-12-20T16:41:34;8.37;;;4.23;;
43529;SDS011;55654;50.966;6.878;2022-12-20T16:44:01;10.23;;;4.13;;
43529;SDS011;55654;50.966;6.878;2022-12-20T16:46:30;6.13;;;4.10;;
43529;SDS011;55654;50.966;6.878;2022-12-20T16:48:57;9.97;;;4.40;;
43529;SDS011;55654;50.966;6.878;2022-12-20T16:53:53;7.60;;;4.50;;
43529;SDS011;55654;50.966;6.878;2022-12-20T16:56:20;6.83;;;3.77;;
43529;SDS011;55654;50.966;6.878;2022-12-20T16:58:46;13.83;;;5.57;;
43529;SDS011;55654;50.966;6.878;2022-12-20T17:01:17;11.07;;;5.10;;